Time;durP1;ratioP1;P1;durP2;ratioP2;P2;SDS_P1;SDS_P2;PMS_P1;PMS_P2;Temp;Humidity;BMP_temperature;BMP_pressure;BME280_temperature;BME280_humidity;BME280_pressure;Samples;Min_cycle;Max_cycle;Signal;HPM_P1;HPM_P2
2021/08/11 00:01:25;;;;;;;;;;;;;;;14.48;94.70;101135.53;5113422;28;19924;-77
2021/08/11 00:03:52;;;;;;;;;;;;;;;14.43;94.73;101135.00;5113781;28;20301;-77
2021/08/11 00:06:19;;;;;;;;;;;;;;;14.37;95.04;101141.47;5113362;28;19931;-77
2021/08/11 00:08:47;;;;;;;;;;;;;;;14.26;95.25;101137.88;5113666;28;20320;-77
2021/08/11 00:11:14;;;;;;;;;;;;;;;14.30;95.43;101132.34;5113503;28;19923;-77
2021/08/11 00:13:41;;;;;;;;;;;;;;;14.32;95.41;101132.25;5113926;28;19947;-77
2021/08/11 00:16:08;;;;;;;;;;;;;;;14.33;95.19;101132.16;5113334;28;19924;-78
2021/08/11 00:18:35;;;;;;;;;;;;;;;14.34;95.38;101139.06;5113421;28;20370;-77
2021/08/11 00:21:01;;;;;;;;;;;;;;;14.38;94.86;101132.69;5113680;28;19931;-78
2021/08/11 00:23:28;;;;;;;;;;;;;;;14.47;94.08;101141.72;5113241;28;20362;-77
2021/08/11 00:25:56;;;;;;;;;;;;;;;14.41;94.07;101139.50;5113414;28;19931;-77
2021/08/11 00:28:23;;;;;;;;;;;;;;;14.33;94.82;101129.53;5113293;28;19931;-77
2021/08/11 00:30:50;;;;;;;;;;;;;;;14.33;94.66;101131.28;5113410;28;19923;-77
2021/08/11 00:33:16;;;;;;;;;;;;;;;14.37;94.22;101130.16;5112973;28;19927;-77
2021/08/11 00:35:43;;;;;;;;;;;;;;;14.26;94.32;101130.03;5113456;28;19931;-77
2021/08/11 00:38:10;;;;;;;;;;;;;;;14.16;95.05;101127.16;5112929;28;19924;-77
2021/08/11 00:40:36;;;;;;;;;;;;;;;14.14;94.88;101129.88;5113048;28;19927;-77
2021/08/11 00:43:07;;;;;;;;;;;;;;;14.12;95.19;101130.91;5113153;28;19924;-77
2021/08/11 00:45:34;;;;;;;;;;;;;;;14.14;94.89;101136.88;5113350;28;19931;-77
2021/08/11 00:48:00;;;;;;;;;;;;;;;14.19;94.50;101133.97;5113044;28;20018;-77
2021/08/11 00:50:27;;;;;;;;;;;;;;;14.09;95.35;101134.56;5113183;28;19928;-77
2021/08/11 00:52:53;;;;;;;;;;;;;;;14.11;94.91;101140.53;5112998;28;19924;-77
2021/08/11 00:55:21;;;;;;;;;;;;;;;14.05;95.19;101142.69;5112638;28;19924;-77
2021/08/11 00:57:48;;;;;;;;;;;;;;;14.06;95.21;101150.44;5112912;28;20416;-78
2021/08/11 01:00:17;;;;;;;;;;;;;;;14.03;95.12;101145.41;5112616;28;19923;-77
2021/08/11 01:02:44;;;;;;;;;;;;;;;14.02;95.65;101146.34;5113119;28;19930;-77
2021/08/11 01:05:11;;;;;;;;;;;;;;;14.03;95.70;101150.66;5112648;28;19930;-77
2021/08/11 01:07:38;;;;;;;;;;;;;;;14.03;95.42;101153.28;5115710;28;19924;-77
2021/08/11 01:10:06;;;;;;;;;;;;;;;13.99;95.74;101146.53;5117084;28;19924;-77
2021/08/11 01:12:33;;;;;;;;;;;;;;;13.99;95.69;101151.78;5117290;28;19924;-77
2021/08/11 01:15:00;;;;;;;;;;;;;;;13.96;95.26;101151.97;5117018;28;19931;-77
2021/08/11 01:17:29;;;;;;;;;;;;;;;13.78;96.23;101148.72;5117166;28;19935;-77
2021/08/11 01:19:58;;;;;;;;;;;;;;;13.93;95.90;101150.38;5116938;28;19924;-77
2021/08/11 01:22:28;;;;;;;;;;;;;;;13.87;95.82;101147.31;5116961;28;19931;-77
2021/08/11 01:24:59;;;;;;;;;;;;;;;13.82;96.26;101158.06;5116580;28;19969;-77
2021/08/11 01:27:34;;;;;;;;;;;;;;;13.93;95.46;101153.00;5116545;28;19924;-77
2021/08/11 01:30:05;;;;;;;;;;;;;;;13.95;95.28;101152.91;5116738;28;20366;-77
2021/08/11 01:32:38;;;;;;;;;;;;;;;13.93;95.32;101155.63;5116676;28;19923;-77
2021/08/11 01:35:10;;;;;;;;;;;;;;;13.92;95.28;101153.09;5116426;28;19931;-77
2021/08/11 01:37:37;;;;;;;;;;;;;;;13.82;95.47;101152.84;5116634;28;19932;-77
2021/08/11 01:40:05;;;;;;;;;;;;;;;13.85;95.32;101154.44;5116470;28;20293;-77
2021/08/11 01:42:36;;;;;;;;;;;;;;;13.81;95.48;101152.94;5116803;28;19924;-77
2021/08/11 01:45:05;;;;;;;;;;;;;;;13.91;95.47;101161.88;5116270;28;20312;-78
2021/08/11 01:47:35;;;;;;;;;;;;;;;13.90;95.24;101161.06;5116738;28;19927;-78
2021/08/11 01:50:02;;;;;;;;;;;;;;;13.94;95.33;101156.44;5116745;28;19923;-78
2021/08/11 01:52:30;;;;;;;;;;;;;;;13.81;95.61;101150.31;5116439;28;19931;-77
2021/08/11 01:54:56;;;;;;;;;;;;;;;13.79;95.72;101154.78;5116587;28;19930;-78
2021/08/11 01:57:23;;;;;;;;;;;;;;;13.84;95.33;101150.94;5116288;28;19931;-78
2021/08/11 01:59:52;;;;;;;;;;;;;;;13.88;95.17;101160.31;5116165;28;20404;-78
2021/08/11 02:02:19;;;;;;;;;;;;;;;13.87;94.66;101165.63;5116202;28;20289;-78
2021/08/11 02:04:46;;;;;;;;;;;;;;;13.89;94.99;101168.97;5116211;28;19931;-78
2021/08/11 02:07:13;;;;;;;;;;;;;;;13.84;95.56;101163.19;5115747;28;19924;-78
2021/08/11 02:09:42;;;;;;;;;;;;;;;13.93;95.12;101165.25;5116272;28;19923;-78
2021/08/11 02:12:09;;;;;;;;;;;;;;;13.85;95.53;101152.66;5115598;28;19924;-78
2021/08/11 02:14:39;;;;;;;;;;;;;;;13.90;95.16;101152.38;5115703;28;20389;-78
2021/08/11 02:17:06;;;;;;;;;;;;;;;13.99;94.55;101148.31;5115918;28;19950;-79
2021/08/11 02:19:32;;;;;;;;;;;;;;;13.96;94.24;101151.97;5115721;28;19924;-78
2021/08/11 02:21:59;;;;;;;;;;;;;;;13.97;94.52;101152.81;5115738;28;19924;-78
2021/08/11 02:24:26;;;;;;;;;;;;;;;13.98;94.49;101155.34;5115429;28;19939;-78
2021/08/11 02:26:58;;;;;;;;;;;;;;;14.01;93.87;101156.91;5115569;28;19931;-78
2021/08/11 02:29:32;;;;;;;;;;;;;;;14.01;93.89;101157.75;5115623;28;19931;-78
2021/08/11 02:32:02;;;;;;;;;;;;;;;14.03;93.99;101163.72;5115494;28;19931;-78
2021/08/11 02:34:33;;;;;;;;;;;;;;;13.97;94.54;101160.66;5115482;28;19931;-78
2021/08/11 02:37:03;;;;;;;;;;;;;;;14.04;94.65;101159.34;5115413;28;20336;-78
2021/08/11 02:39:32;;;;;;;;;;;;;;;14.03;94.68;101149.81;5115894;28;19924;-78
2021/08/11 02:42:05;;;;;;;;;;;;;;;14.05;94.64;101154.03;5115337;28;20286;-78
2021/08/11 02:44:34;;;;;;;;;;;;;;;14.10;94.13;101151.09;5115376;28;20406;-78
2021/08/11 02:47:00;;;;;;;;;;;;;;;14.13;93.42;101151.75;5115552;28;19931;-78
2021/08/11 02:49:28;;;;;;;;;;;;;;;14.19;93.56;101152.31;5115022;28;20297;-78
2021/08/11 02:51:56;;;;;;;;;;;;;;;14.14;93.99;101150.81;5115113;28;20259;-78
2021/08/11 02:54:24;;;;;;;;;;;;;;;14.11;93.33;101156.22;5114776;28;20286;-78
2021/08/11 02:56:50;;;;;;;;;;;;;;;14.10;93.27;101146.72;5115393;28;19924;-78
2021/08/11 02:59:20;;;;;;;;;;;;;;;14.07;93.69;101157.34;5115125;28;19935;-78
2021/08/11 03:01:47;;;;;;;;;;;;;;;14.13;93.51;101158.75;5115105;28;19931;-78
2021/08/11 03:04:14;;;;;;;;;;;;;;;14.07;94.04;101148.66;5114727;28;20409;-78
2021/08/11 03:06:40;;;;;;;;;;;;;;;14.01;94.43;101156.91;5114870;28;19924;-79
2021/08/11 03:09:08;;;;;;;;;;;;;;;14.03;94.08;101149.81;5114616;28;20374;-79
2021/08/11 03:11:35;;;;;;;;;;;;;;;14.04;93.62;101149.69;5114711;28;20397;-78
2021/08/11 03:14:02;;;;;;;;;;;;;;;14.10;93.56;101144.09;5114719;28;19924;-78
2021/08/11 03:16:30;;;;;;;;;;;;;;;14.12;93.84;101144.81;5114658;28;19931;-78
2021/08/11 03:18:57;;;;;;;;;;;;;;;14.00;93.83;101135.16;5114966;28;19924;-78
2021/08/11 03:21:24;;;;;;;;;;;;;;;14.06;93.45;101137.38;5114195;28;19924;-78
2021/08/11 03:23:50;;;;;;;;;;;;;;;14.02;93.92;101145.50;5114331;28;19924;-78
2021/08/11 03:26:17;;;;;;;;;;;;;;;14.01;93.24;101141.22;5114351;28;20403;-78
2021/08/11 03:28:44;;;;;;;;;;;;;;;14.04;93.28;101143.63;5114730;28;19957;-78
2021/08/11 03:31:10;;;;;;;;;;;;;;;14.10;93.52;101149.34;5113598;28;19923;-78
2021/08/11 03:33:38;;;;;;;;;;;;;;;14.24;92.72;101137.13;5114712;28;19924;-78
2021/08/11 03:36:06;;;;;;;;;;;;;;;14.17;92.38;101144.53;5113890;28;20435;-78
2021/08/11 03:38:32;;;;;;;;;;;;;;;14.14;92.51;101145.56;5114578;28;19972;-78
2021/08/11 03:40:59;;;;;;;;;;;;;;;14.00;93.42;101142.13;5114281;28;20377;-77
2021/08/11 03:43:26;;;;;;;;;;;;;;;13.97;93.61;101153.63;5114381;28;19969;-78
2021/08/11 03:45:52;;;;;;;;;;;;;;;14.03;93.40;101147.19;5114416;28;19924;-78
2021/08/11 03:48:19;;;;;;;;;;;;;;;14.04;93.54;101141.84;5113568;28;19924;-78
2021/08/11 03:50:47;;;;;;;;;;;;;;;14.07;93.24;101144.28;5114308;28;19931;-78
2021/08/11 03:53:14;;;;;;;;;;;;;;;14.16;92.94;101135.03;5113889;28;19931;-78
2021/08/11 03:55:41;;;;;;;;;;;;;;;14.11;92.86;101143.16;5114253;28;19924;-76
2021/08/11 03:58:07;;;;;;;;;;;;;;;14.14;93.70;101145.56;5113931;28;19923;-77
2021/08/11 04:00:34;;;;;;;;;;;;;;;14.09;93.13;101137.16;5114021;28;19923;-77
2021/08/11 04:03:01;;;;;;;;;;;;;;;14.21;92.55;101142.59;5113716;28;20266;-77
2021/08/11 04:05:27;;;;;;;;;;;;;;;14.21;92.46;101145.19;5113736;28;19963;-77
2021/08/11 04:07:55;;;;;;;;;;;;;;;14.20;93.03;101152.19;5113644;28;19924;-77
2021/08/11 04:10:22;;;;;;;;;;;;;;;14.28;93.16;101142.09;5113661;28;20090;-77
2021/08/11 04:12:49;;;;;;;;;;;;;;;14.23;92.86;101144.16;5113452;28;20401;-77
2021/08/11 04:15:15;;;;;;;;;;;;;;;14.29;93.15;101148.16;5113585;28;19923;-77
2021/08/11 04:17:42;;;;;;;;;;;;;;;14.30;92.47;101148.03;5113458;28;19925;-77
2021/08/11 04:20:09;;;;;;;;;;;;;;;14.32;93.14;101145.34;5113452;28;19972;-78
2021/08/11 04:22:36;;;;;;;;;;;;;;;14.44;92.86;101148.91;5113367;28;20394;-77
2021/08/11 04:25:04;;;;;;;;;;;;;;;14.53;92.35;101150.97;5112989;28;19924;-77
2021/08/11 04:27:31;;;;;;;;;;;;;;;14.49;91.91;101149.47;5113652;28;19924;-77
2021/08/11 04:29:57;;;;;;;;;;;;;;;14.56;92.09;101158.63;5113280;28;19924;-78
2021/08/11 04:32:24;;;;;;;;;;;;;;;14.44;92.25;101154.16;5112915;28;20290;-78
2021/08/11 04:34:51;;;;;;;;;;;;;;;14.51;91.58;101151.03;5113395;28;19924;-77
2021/08/11 04:37:17;;;;;;;;;;;;;;;14.56;92.16;101151.59;5112917;28;19937;-78
2021/08/11 04:39:44;;;;;;;;;;;;;;;14.63;90.82;101149.44;5113320;28;19939;-78
2021/08/11 04:42:12;;;;;;;;;;;;;;;14.58;91.44;101144.50;5112047;28;20374;-77
2021/08/11 04:44:38;;;;;;;;;;;;;;;14.63;91.02;101140.75;5113366;28;20018;-78
2021/08/11 04:47:05;;;;;;;;;;;;;;;14.67;90.80;101145.69;5112719;28;19924;-77
2021/08/11 04:49:32;;;;;;;;;;;;;;;14.71;91.30;101139.28;5113236;28;19927;-74
2021/08/11 04:51:58;;;;;;;;;;;;;;;14.78;90.44;101147.59;5113127;28;20001;-80
2021/08/11 04:54:25;;;;;;;;;;;;;;;14.85;90.13;101150.63;5112663;28;19930;-80
2021/08/11 04:56:51;;;;;;;;;;;;;;;14.99;90.25;101158.41;5113188;28;19930;-81
2021/08/11 04:59:19;;;;;;;;;;;;;;;15.00;89.58;101154.84;5112633;28;19930;-78
2021/08/11 05:01:46;;;;;;;;;;;;;;;15.06;89.25;101151.81;5112900;28;19931;-77
2021/08/11 05:04:12;;;;;;;;;;;;;;;15.16;89.50;101152.06;5112799;28;19924;-76
2021/08/11 05:06:39;;;;;;;;;;;;;;;15.36;88.32;101161.16;5112850;28;20397;-72
2021/08/11 05:09:06;;;;;;;;;;;;;;;15.63;87.96;101153.16;5112823;28;20014;-72
2021/08/11 05:11:32;;;;;;;;;;;;;;;15.64;87.07;101160.94;5113094;28;19923;-72
2021/08/11 05:13:59;;;;;;;;;;;;;;;15.74;86.23;101158.53;5112708;28;20393;-72
2021/08/11 05:16:27;;;;;;;;;;;;;;;15.73;86.57;101162.09;5112664;28;19930;-72
2021/08/11 05:18:54;;;;;;;;;;;;;;;15.73;86.55;101159.47;5112964;28;19924;-72
2021/08/11 05:21:21;;;;;;;;;;;;;;;15.76;86.48;101169.75;5112313;28;19924;-72
2021/08/11 05:23:47;;;;;;;;;;;;;;;15.61;86.67;101171.63;5112495;28;20366;-74
2021/08/11 05:26:14;;;;;;;;;;;;;;;15.81;86.07;101172.91;5112731;28;19924;-72
2021/08/11 05:28:41;;;;;;;;;;;;;;;15.81;86.59;101180.75;5112544;28;19930;-76
2021/08/11 05:31:07;;;;;;;;;;;;;;;15.70;87.07;101180.69;5112581;28;19946;-77
2021/08/11 05:33:35;;;;;;;;;;;;;;;15.60;87.55;101169.97;5112398;28;19931;-77
2021/08/11 05:36:02;;;;;;;;;;;;;;;15.59;86.62;101170.06;5112813;28;19946;-77
2021/08/11 05:38:28;;;;;;;;;;;;;;;15.60;86.99;101172.59;5112552;28;19924;-77
2021/08/11 05:40:55;;;;;;;;;;;;;;;15.60;86.67;101172.59;5112556;28;20377;-77
2021/08/11 05:43:21;;;;;;;;;;;;;;;15.88;85.68;101171.53;5112489;28;19924;-77
2021/08/11 05:45:48;;;;;;;;;;;;;;;16.10;85.69;101177.84;5112442;28;19924;-77
2021/08/11 05:48:15;;;;;;;;;;;;;;;15.98;85.46;101179.59;5112261;28;20274;-77
2021/08/11 05:50:43;;;;;;;;;;;;;;;16.04;86.22;101175.69;5112790;28;19930;-77
2021/08/11 05:53:09;;;;;;;;;;;;;;;16.03;85.81;101172.22;5113531;28;19924;-77
2021/08/11 05:55:36;;;;;;;;;;;;;;;16.21;84.90;101166.59;5116292;28;20293;-77
2021/08/11 05:58:02;;;;;;;;;;;;;;;16.32;85.40;101164.03;5116253;28;19924;-77
2021/08/11 06:00:29;;;;;;;;;;;;;;;16.14;85.78;101168.00;5116375;28;19924;-77
2021/08/11 06:02:57;;;;;;;;;;;;;;;16.01;85.73;101162.78;5116099;28;19923;-77
2021/08/11 06:05:23;;;;;;;;;;;;;;;16.09;85.66;101163.91;5115939;28;19931;-77
2021/08/11 06:07:52;;;;;;;;;;;;;;;15.95;85.21;101163.19;5115941;28;20298;-77
2021/08/11 06:10:18;;;;;;;;;;;;;;;15.87;86.21;101158.50;5115630;28;19928;-77
2021/08/11 06:12:46;;;;;;;;;;;;;;;15.80;86.16;101163.34;5116130;28;19924;-77
2021/08/11 06:15:13;;;;;;;;;;;;;;;15.91;86.17;101162.59;5115555;28;19967;-77
2021/08/11 06:17:46;;;;;;;;;;;;;;;15.96;86.81;101160.47;5115701;28;20313;-78
2021/08/11 06:20:13;;;;;;;;;;;;;;;15.95;85.74;101150.91;5115475;28;19959;-78
2021/08/11 06:22:40;;;;;;;;;;;;;;;16.07;85.65;101154.47;5115670;28;20386;-78
2021/08/11 06:25:08;;;;;;;;;;;;;;;16.00;84.97;101148.78;5115359;28;20032;-77
2021/08/11 06:27:35;;;;;;;;;;;;;;;16.05;84.64;101157.19;5115529;28;19924;-77
2021/08/11 06:30:02;;;;;;;;;;;;;;;16.16;84.30;101151.19;5115572;28;20508;-77
2021/08/11 06:32:28;;;;;;;;;;;;;;;16.44;84.53;101152.66;5115343;28;19923;-77
2021/08/11 06:34:55;;;;;;;;;;;;;;;16.62;82.85;101157.47;5115591;28;19931;-77
2021/08/11 06:37:22;;;;;;;;;;;;;;;16.61;83.45;101161.06;5115046;28;20278;-77
2021/08/11 06:39:48;;;;;;;;;;;;;;;16.55;82.78;101162.34;5115509;28;19930;-77
2021/08/11 06:42:16;;;;;;;;;;;;;;;16.46;83.71;101161.22;5115037;28;19924;-77
2021/08/11 06:44:43;;;;;;;;;;;;;;;16.69;81.88;101167.41;5115440;28;19924;-77
2021/08/11 06:47:10;;;;;;;;;;;;;;;16.98;81.26;101161.81;5114940;28;19930;-77
2021/08/11 06:49:36;;;;;;;;;;;;;;;16.96;81.14;101167.19;5115148;28;19924;-76
2021/08/11 06:52:03;;;;;;;;;;;;;;;16.82;81.07;101162.09;5115278;28;19923;-77
2021/08/11 06:54:30;;;;;;;;;;;;;;;16.95;80.13;101165.50;5115218;28;19931;-77
2021/08/11 06:56:56;;;;;;;;;;;;;;;17.10;80.53;101163.50;5114997;28;19924;-77
2021/08/11 06:59:24;;;;;;;;;;;;;;;17.38;78.41;101164.00;5114818;28;20390;-76
2021/08/11 07:01:51;;;;;;;;;;;;;;;17.54;78.77;101167.13;5114975;28;20381;-75
2021/08/11 07:04:17;;;;;;;;;;;;;;;17.60;77.74;101166.66;5114066;28;19924;-75
2021/08/11 07:06:44;;;;;;;;;;;;;;;17.90;76.82;101164.38;5114779;28;19924;-76
2021/08/11 07:09:11;;;;;;;;;;;;;;;17.92;77.92;101175.63;5115112;28;19924;-75
2021/08/11 07:11:37;;;;;;;;;;;;;;;17.93;76.58;101167.63;5114838;28;19924;-76
2021/08/11 07:14:04;;;;;;;;;;;;;;;18.34;75.50;101168.75;5114831;28;20288;-76
2021/08/11 07:16:34;;;;;;;;;;;;;;;18.21;74.13;101168.91;5115046;28;19953;-76
2021/08/11 07:19:01;;;;;;;;;;;;;;;18.85;73.82;101165.41;5114589;28;19931;-76
2021/08/11 07:21:27;;;;;;;;;;;;;;;19.80;68.84;101159.13;5115133;28;19924;-75
2021/08/11 07:23:54;;;;;;;;;;;;;;;20.65;67.14;101155.06;5114331;28;20396;-76
2021/08/11 07:26:21;;;;;;;;;;;;;;;21.29;63.15;101161.50;5114475;28;19930;-76
2021/08/11 07:28:47;;;;;;;;;;;;;;;20.80;66.13;101166.88;5115896;28;19946;-76
2021/08/11 07:31:14;;;;;;;;;;;;;;;21.65;64.57;101165.16;5114186;28;19930;-76
2021/08/11 07:33:42;;;;;;;;;;;;;;;21.26;64.33;101159.97;5114531;28;20297;-76
2021/08/11 07:36:08;;;;;;;;;;;;;;;22.39;60.75;101169.47;5114091;28;20382;-76
2021/08/11 07:38:35;;;;;;;;;;;;;;;21.74;61.59;101163.44;5114452;28;19930;-76
2021/08/11 07:41:02;;;;;;;;;;;;;;;20.54;65.62;101161.34;5114211;28;20336;-76
2021/08/11 07:43:28;;;;;;;;;;;;;;;20.17;66.92;101166.44;5114099;28;19931;-76
2021/08/11 07:45:55;;;;;;;;;;;;;;;19.48;67.99;101156.63;5114161;28;20320;-76
2021/08/11 07:48:22;;;;;;;;;;;;;;;19.85;68.93;101156.91;5114175;28;19924;-76
2021/08/11 07:50:50;;;;;;;;;;;;;;;21.26;63.21;101145.91;5113975;28;19931;-76
2021/08/11 07:53:16;;;;;;;;;;;;;;;21.91;61.99;101152.06;5113891;28;19947;-76
2021/08/11 07:55:43;;;;;;;;;;;;;;;21.09;64.72;101144.84;5113859;28;19927;-76
2021/08/11 07:58:09;;;;;;;;;;;;;;;20.75;63.87;101144.50;5113568;28;19952;-76
2021/08/11 08:00:36;;;;;;;;;;;;;;;20.00;65.95;101152.09;5114064;28;20018;-77
2021/08/11 08:03:03;;;;;;;;;;;;;;;21.13;63.04;101148.88;5113781;28;20040;-76
2021/08/11 08:05:29;;;;;;;;;;;;;;;23.11;56.75;101144.69;5113732;28;19924;-77
2021/08/11 08:07:59;;;;;;;;;;;;;;;21.63;61.33;101145.94;5113714;28;19924;-76
2021/08/11 08:10:25;;;;;;;;;;;;;;;22.23;60.80;101155.25;5113305;28;20443;-76
2021/08/11 08:12:52;;;;;;;;;;;;;;;22.72;59.57;101159.16;5113803;28;19932;-76
2021/08/11 08:15:19;;;;;;;;;;;;;;;22.45;59.81;101167.19;5113075;28;19931;-76
2021/08/11 08:17:46;;;;;;;;;;;;;;;21.95;59.75;101156.06;5113477;28;19924;-76
2021/08/11 08:20:13;;;;;;;;;;;;;;;21.10;62.67;101146.53;5113111;28;19928;-76
2021/08/11 08:22:40;;;;;;;;;;;;;;;20.98;64.25;101148.50;5113349;28;20338;-76
2021/08/11 08:25:08;;;;;;;;;;;;;;;20.97;67.11;101152.13;5112933;28;19937;-76
2021/08/11 08:27:35;;;;;;;;;;;;;;;21.36;61.48;101152.00;5113259;28;19924;-76
2021/08/11 08:30:01;;;;;;;;;;;;;;;22.25;58.94;101145.31;5113328;28;20294;-76
2021/08/11 08:32:30;;;;;;;;;;;;;;;22.61;60.08;101143.50;5113199;28;20452;-76
2021/08/11 08:34:57;;;;;;;;;;;;;;;22.37;58.86;101155.53;5113233;28;19928;-76
2021/08/11 08:37:28;;;;;;;;;;;;;;;21.79;59.80;101147.94;5112836;28;19923;-76
2021/08/11 08:39:54;;;;;;;;;;;;;;;22.15;59.60;101151.50;5113399;28;20026;-76
2021/08/11 08:42:22;;;;;;;;;;;;;;;21.50;60.24;101148.94;5112844;28;19931;-76
2021/08/11 08:44:49;;;;;;;;;;;;;;;20.95;62.36;101147.94;5113114;28;19924;-76
2021/08/11 08:47:16;;;;;;;;;;;;;;;20.34;65.41;101155.19;5113070;28;20278;-77
2021/08/11 08:49:44;;;;;;;;;;;;;;;20.27;66.82;101153.22;5112908;28;19928;-76
2021/08/11 08:52:11;;;;;;;;;;;;;;;20.02;67.00;101147.50;5112620;28;19924;-76
2021/08/11 08:54:38;;;;;;;;;;;;;;;19.63;67.78;101149.19;5112885;28;20366;-76
2021/08/11 08:57:04;;;;;;;;;;;;;;;19.32;67.41;101154.47;5112608;28;19924;-76
2021/08/11 08:59:32;;;;;;;;;;;;;;;19.19;68.48;101156.47;5113198;28;19931;-76
2021/08/11 09:01:59;;;;;;;;;;;;;;;18.96;70.23;101150.50;5112835;28;19935;-76
2021/08/11 09:04:26;;;;;;;;;;;;;;;18.95;70.10;101156.75;5112645;28;20266;-76
2021/08/11 09:06:52;;;;;;;;;;;;;;;22.20;61.25;101148.41;5113226;28;19923;-76
2021/08/11 09:09:19;;;;;;;;;;;;;;;20.65;63.17;101155.94;5112529;28;19932;-76
2021/08/11 09:11:45;;;;;;;;;;;;;;;19.64;65.81;101151.69;5112804;28;20262;-75
2021/08/11 09:14:15;;;;;;;;;;;;;;;19.63;67.29;101150.00;5112659;28;19924;-75
2021/08/11 09:16:47;;;;;;;;;;;;;;;19.81;67.86;101152.88;5113077;28;19924;-75
2021/08/11 09:19:13;;;;;;;;;;;;;;;20.92;63.38;101149.06;5112612;28;20408;-75
2021/08/11 09:21:40;;;;;;;;;;;;;;;22.14;56.37;101155.13;5112664;28;19923;-75
2021/08/11 09:24:16;;;;;;;;;;;;;;;23.85;53.33;101149.38;5112185;28;19924;-75
2021/08/11 09:26:43;;;;;;;;;;;;;;;25.12;47.60;101141.94;5113059;28;19928;-75
2021/08/11 09:29:10;;;;;;;;;;;;;;;24.21;48.32;101143.78;5116058;28;19924;-75
2021/08/11 09:31:37;;;;;;;;;;;;;;;23.90;51.66;101149.72;5116632;28;20335;-75
2021/08/11 09:34:07;;;;;;;;;;;;;;;24.18;49.27;101144.13;5116535;28;19924;-75
2021/08/11 09:36:41;;;;;;;;;;;;;;;24.77;47.31;101144.84;5116992;28;19928;-76
2021/08/11 09:39:07;;;;;;;;;;;;;;;23.03;53.27;101146.28;5116309;28;20377;-76
2021/08/11 09:41:34;;;;;;;;;;;;;;;24.96;49.13;101148.13;5116922;28;20066;-76
2021/08/11 09:44:08;;;;;;;;;;;;;;;26.06;46.47;101145.59;5116824;28;19946;-76
2021/08/11 09:46:36;;;;;;;;;;;;;;;26.33;44.10;101149.56;5116647;28;19931;-76
2021/08/11 09:49:02;;;;;;;;;;;;;;;24.27;48.23;101147.63;5116767;28;19959;-76
2021/08/11 09:51:31;;;;;;;;;;;;;;;24.31;50.31;101152.44;5116407;28;19923;-76
2021/08/11 09:53:57;;;;;;;;;;;;;;;24.74;47.43;101144.34;5116572;28;19924;-76
2021/08/11 09:56:32;;;;;;;;;;;;;;;24.28;46.67;101151.97;5116069;28;19924;-76
2021/08/11 09:59:01;;;;;;;;;;;;;;;23.76;48.77;101147.66;5116281;28;19969;-76
2021/08/11 10:01:28;;;;;;;;;;;;;;;24.79;46.81;101147.34;5116049;28;19977;-76
2021/08/11 10:03:56;;;;;;;;;;;;;;;26.45;43.88;101149.97;5116068;28;19924;-76
2021/08/11 10:06:26;;;;;;;;;;;;;;;26.37;42.66;101148.19;5115819;28;20026;-76
2021/08/11 10:08:54;;;;;;;;;;;;;;;25.78;44.19;101142.56;5116359;28;20127;-76
2021/08/11 10:11:35;;;;;;;;;;;;;;;23.74;49.51;101141.72;5115621;28;19978;-76
2021/08/11 10:14:02;;;;;;;;;;;;;;;22.95;53.12;101151.53;5116145;28;19924;-76
2021/08/11 10:16:30;;;;;;;;;;;;;;;21.80;57.15;101152.25;5116214;28;19924;-76
2021/08/11 10:18:57;;;;;;;;;;;;;;;21.60;60.31;101153.34;5116153;28;19924;-76
2021/08/11 10:21:24;;;;;;;;;;;;;;;22.51;57.94;101159.47;5115820;28;19934;-76
2021/08/11 10:23:50;;;;;;;;;;;;;;;21.34;64.01;101153.97;5115704;28;19924;-76
2021/08/11 10:26:18;;;;;;;;;;;;;;;23.21;56.22;101151.53;5115732;28;20316;-76
2021/08/11 10:28:45;;;;;;;;;;;;;;;23.54;55.97;101148.25;5115670;28;20309;-76
2021/08/11 10:31:12;;;;;;;;;;;;;;;24.51;53.18;101155.66;5115684;28;19930;-75
2021/08/11 10:33:43;;;;;;;;;;;;;;;25.85;50.43;101154.22;5115280;28;19923;-75
2021/08/11 10:36:11;;;;;;;;;;;;;;;26.14;50.01;101156.19;5115667;28;19924;-74
2021/08/11 10:38:38;;;;;;;;;;;;;;;26.73;50.10;101160.13;5114765;28;19931;-75
2021/08/11 10:41:05;;;;;;;;;;;;;;;24.60;52.98;101163.63;5114409;28;20405;-76
2021/08/11 10:43:35;;;;;;;;;;;;;;;23.65;53.90;101162.03;5115607;28;19931;-75
2021/08/11 10:46:05;;;;;;;;;;;;;;;25.07;51.65;101162.91;5115570;28;19924;-75
2021/08/11 10:48:32;;;;;;;;;;;;;;;24.05;53.42;101155.25;5115561;28;19924;-75
2021/08/11 10:50:58;;;;;;;;;;;;;;;26.31;49.12;101170.28;5115384;28;19923;-75
2021/08/11 10:53:25;;;;;;;;;;;;;;;24.69;50.07;101155.50;5114871;28;19930;-75
2021/08/11 10:55:52;;;;;;;;;;;;;;;25.31;51.45;101157.56;5115472;28;19931;-75
2021/08/11 10:58:35;;;;;;;;;;;;;;;24.37;52.63;101152.78;5115083;28;19930;-75
2021/08/11 11:01:02;;;;;;;;;;;;;;;24.61;52.81;101152.84;5115321;28;20356;-75
2021/08/11 11:03:47;;;;;;;;;;;;;;;26.68;48.47;101158.00;5115007;28;20420;-76
2021/08/11 11:06:14;;;;;;;;;;;;;;;28.42;44.09;101152.03;5114967;28;19924;-77
2021/08/11 11:08:40;;;;;;;;;;;;;;;28.22;44.62;101161.72;5114812;28;19924;-77
2021/08/11 11:11:31;;;;;;;;;;;;;;;30.37;39.13;101171.69;5115119;28;19923;-77
2021/08/11 11:13:59;;;;;;;;;;;;;;;28.72;42.44;101157.25;5115155;28;19924;-78
2021/08/11 11:16:40;;;;;;;;;;;;;;;28.43;42.77;101159.03;5114512;28;19928;-76
2021/08/11 11:19:08;;;;;;;;;;;;;;;26.67;46.21;101162.50;5113640;28;19924;-76
2021/08/11 11:21:34;;;;;;;;;;;;;;;27.01;45.08;101160.34;5114907;28;19924;-76
2021/08/11 11:24:01;;;;;;;;;;;;;;;25.80;48.10;101159.22;5114199;28;19924;-76
2021/08/11 11:26:31;;;;;;;;;;;;;;;25.66;48.25;101168.75;5114532;28;19963;-77
2021/08/11 11:29:03;;;;;;;;;;;;;;;26.34;47.69;101174.41;5114822;28;19924;-80
2021/08/11 11:31:46;;;;;;;;;;;;;;;23.52;54.04;101171.47;5114692;28;20038;-80
2021/08/11 11:34:27;;;;;;;;;;;;;;;24.51;53.10;101171.63;5114269;28;20027;-80
2021/08/11 11:37:12;;;;;;;;;;;;;;;25.73;49.08;101164.41;5114555;28;19924;-80
2021/08/11 11:39:53;;;;;;;;;;;;;;;25.03;49.13;101172.25;5117538;28;19936;-78
2021/08/11 11:42:27;;;;;;;;;;;;;;;24.72;50.41;101167.63;5113685;28;19924;-79
2021/08/11 11:44:57;;;;;;;;;;;;;;;26.61;46.57;101173.88;5114711;28;19931;-81
2021/08/11 11:47:39;;;;;;;;;;;;;;;25.53;47.58;101161.31;5114464;28;19923;-80
2021/08/11 11:50:20;;;;;;;;;;;;;;;26.87;46.24;101167.31;5113052;28;19928;-79
2021/08/11 11:52:48;;;;;;;;;;;;;;;28.48;43.44;101169.19;5113681;28;19923;-79
2021/08/11 11:55:14;;;;;;;;;;;;;;;29.24;40.06;101174.72;5113839;28;19931;-77
2021/08/11 11:57:41;;;;;;;;;;;;;;;27.35;43.64;101173.19;5114220;28;19923;-80
2021/08/11 12:00:17;;;;;;;;;;;;;;;27.35;43.81;101159.84;5113901;28;19931;-79
2021/08/11 12:02:43;;;;;;;;;;;;;;;29.07;39.45;101163.50;5113849;28;19930;-79
2021/08/11 12:05:10;;;;;;;;;;;;;;;28.53;40.39;101161.41;5113798;28;19924;-79
2021/08/11 12:07:37;;;;;;;;;;;;;;;28.59;41.18;101155.31;5114234;28;19930;-78
2021/08/11 12:10:05;;;;;;;;;;;;;;;28.74;42.35;101159.72;5113409;28;19930;-79
2021/08/11 12:12:31;;;;;;;;;;;;;;;29.21;41.16;101167.09;5113684;28;19930;-80
2021/08/11 12:15:18;;;;;;;;;;;;;;;29.44;40.64;101158.78;5114113;28;20395;-80
2021/08/11 12:17:46;;;;;;;;;;;;;;;29.79;39.72;101158.72;5113985;28;19924;-79
2021/08/11 12:20:30;;;;;;;;;;;;;;;27.10;43.21;101160.09;5113269;28;19930;-79
2021/08/11 12:22:57;;;;;;;;;;;;;;;28.91;40.75;101166.47;5113685;28;19923;-78
2021/08/11 12:25:24;;;;;;;;;;;;;;;28.31;40.06;101151.69;5113117;28;19924;-79
2021/08/11 12:28:07;;;;;;;;;;;;;;;29.57;39.52;101147.28;5113569;28;19924;-79
2021/08/11 12:30:38;;;;;;;;;;;;;;;29.33;39.57;101148.59;5112666;28;21360;-80
2021/08/11 12:33:05;;;;;;;;;;;;;;;30.05;38.96;101141.03;5112934;28;19930;-76
2021/08/11 12:35:32;;;;;;;;;;;;;;;29.53;38.65;101138.78;5113079;28;19924;-78
2021/08/11 12:37:58;;;;;;;;;;;;;;;31.33;35.40;101140.78;5113422;28;19932;-78
2021/08/11 12:40:29;;;;;;;;;;;;;;;30.34;36.80;101146.06;5113265;28;19930;-77